Time;durP1;ratioP1;P1;durP2;ratioP2;P2;SDS_P1;SDS_P2;PMS_P1;PMS_P2;Temp;Humidity;BMP_temperature;BMP_pressure;BME280_temperature;BME280_humidity;BME280_pressure;Samples;Min_cycle;Max_cycle;Signal;HPM_P1;HPM_P2
2023/05/07 00:00:49;;;;;;;2.70;1.10;;;;;;;;;;21007001;28;20049;-69
2023/05/07 00:10:50;;;;;;;2.50;1.05;;;;;;;;;;21004945;28;20127;-69
2023/05/07 00:20:51;;;;;;;5.90;1.23;;;;;;;;;;21005236;28;20097;-68
2023/05/07 00:30:53;;;;;;;1.50;0.70;;;;;;;;;;21004727;28;20123;-69
2023/05/07 00:40:54;;;;;;;2.50;0.90;;;;;;;;;;21002668;28;20045;-68
2023/05/07 00:50:55;;;;;;;0.98;0.68;;;;;;;;;;21003007;28;20052;-68
2023/05/07 01:00:56;;;;;;;1.70;0.90;;;;;;;;;;21001367;28;20504;-68
2023/05/07 01:10:57;;;;;;;1.92;0.73;;;;;;;;;;20999893;28;20055;-67
2023/05/07 01:21:00;;;;;;;2.33;0.77;;;;;;;;;;20998949;28;20073;-68
2023/05/07 01:31:03;;;;;;;4.43;0.80;;;;;;;;;;20999732;28;20055;-68
2023/05/07 01:41:05;;;;;;;2.22;0.70;;;;;;;;;;20999282;28;20051;-69
2023/05/07 01:51:06;;;;;;;2.35;1.00;;;;;;;;;;20998433;28;20489;-68
2023/05/07 02:01:07;;;;;;;3.22;1.10;;;;;;;;;;20996627;28;20044;-69
2023/05/07 02:11:08;;;;;;;3.55;0.75;;;;;;;;;;20995150;28;20044;-69
2023/05/07 02:21:09;;;;;;;6.28;1.10;;;;;;;;;;20994306;28;20060;-69
2023/05/07 02:31:11;;;;;;;2.75;0.77;;;;;;;;;;20994083;28;20044;-68
2023/05/07 02:41:12;;;;;;;1.88;0.60;;;;;;;;;;20995739;28;20049;-69
2023/05/07 02:51:13;;;;;;;2.80;0.80;;;;;;;;;;20994521;28;20063;-68
2023/05/07 03:01:14;;;;;;;2.45;0.88;;;;;;;;;;20995503;28;20040;-69
2023/05/07 03:11:15;;;;;;;1.60;0.60;;;;;;;;;;20995011;28;20049;-68
2023/05/07 03:21:16;;;;;;;1.30;0.63;;;;;;;;;;20993273;28;20069;-68
2023/05/07 03:31:18;;;;;;;3.08;0.50;;;;;;;;;;21005507;28;20055;-69
2023/05/07 03:41:20;;;;;;;5.38;1.20;;;;;;;;;;21008684;28;20146;-68
2023/05/07 03:51:21;;;;;;;6.90;1.00;;;;;;;;;;21007750;28;20410;-69
2023/05/07 04:01:22;;;;;;;3.72;0.60;;;;;;;;;;21007152;28;20062;-68
2023/05/07 04:11:23;;;;;;;5.65;0.98;;;;;;;;;;21006287;28;20044;-67
2023/05/07 04:21:26;;;;;;;4.38;0.70;;;;;;;;;;21006041;28;20531;-69
2023/05/07 04:31:27;;;;;;;3.92;0.90;;;;;;;;;;21004806;28;20098;-68
2023/05/07 04:41:28;;;;;;;6.43;1.02;;;;;;;;;;21001476;28;20059;-68
2023/05/07 04:51:30;;;;;;;2.25;0.73;;;;;;;;;;21002977;28;20486;-68
2023/05/07 05:01:31;;;;;;;4.82;0.95;;;;;;;;;;21002249;28;20540;-68
2023/05/07 05:11:32;;;;;;;3.13;0.80;;;;;;;;;;21001244;28;20435;-68
2023/05/07 05:21:33;;;;;;;1.67;0.60;;;;;;;;;;20999967;28;20056;-67
2023/05/07 05:31:35;;;;;;;2.67;0.90;;;;;;;;;;20999855;28;20106;-69
2023/05/07 05:41:36;;;;;;;5.15;1.13;;;;;;;;;;20999469;28;20048;-68
2023/05/07 05:51:37;;;;;;;2.60;0.70;;;;;;;;;;20996745;28;20123;-68
2023/05/07 06:01:38;;;;;;;3.22;0.88;;;;;;;;;;20997681;28;20048;-69
2023/05/07 06:11:40;;;;;;;2.47;0.85;;;;;;;;;;20997258;28;20045;-69
2023/05/07 06:21:42;;;;;;;5.72;1.27;;;;;;;;;;20996536;28;20053;-68
2023/05/07 06:31:43;;;;;;;3.97;0.90;;;;;;;;;;20996724;28;20037;-69
2023/05/07 06:41:44;;;;;;;2.35;1.15;;;;;;;;;;20996449;28;20041;-69
2023/05/07 06:51:45;;;;;;;1.38;0.70;;;;;;;;;;20995903;28;20405;-69
2023/05/07 07:01:46;;;;;;;3.63;0.80;;;;;;;;;;21001436;28;20540;-70
2023/05/07 07:11:47;;;;;;;2.95;0.70;;;;;;;;;;21009289;28;20131;-69
2023/05/07 07:21:49;;;;;;;2.28;0.85;;;;;;;;;;21007960;28;20067;-68
2023/05/07 07:31:50;;;;;;;5.13;1.00;;;;;;;;;;21007703;28;20123;-68
2023/05/07 07:41:51;;;;;;;1.13;0.50;;;;;;;;;;21007276;28;20127;-69
2023/05/07 07:51:52;;;;;;;2.42;0.80;;;;;;;;;;21007608;28;20142;-68
2023/05/07 08:01:55;;;;;;;2.10;0.70;;;;;;;;;;21005413;28;20529;-69
2023/05/07 08:11:56;;;;;;;1.67;0.60;;;;;;;;;;21005720;28;20090;-67
2023/05/07 08:21:57;;;;;;;2.53;0.70;;;;;;;;;;21003917;28;20060;-69
2023/05/07 08:31:58;;;;;;;4.35;0.75;;;;;;;;;;21004248;28;20087;-68
2023/05/07 08:42:04;;;;;;;1.83;0.70;;;;;;;;;;21003936;28;20445;-68
2023/05/07 08:52:06;;;;;;;1.90;0.50;;;;;;;;;;21003080;28;20463;-68
2023/05/07 09:02:08;;;;;;;3.50;0.90;;;;;;;;;;21002791;28;20082;-67
2023/05/07 09:12:10;;;;;;;7.22;0.68;;;;;;;;;;20999663;28;20087;-68
2023/05/07 09:22:11;;;;;;;2.05;0.70;;;;;;;;;;20997074;28;20063;-68
2023/05/07 09:32:13;;;;;;;3.67;0.70;;;;;;;;;;20996938;28;20045;-70
2023/05/07 09:42:17;;;;;;;0.60;0.40;;;;;;;;;;20997204;28;20048;-69
2023/05/07 09:52:19;;;;;;;4.95;0.63;;;;;;;;;;20997665;28;20489;-69
2023/05/07 10:02:21;;;;;;;1.38;0.40;;;;;;;;;;20995639;28;20482;-69
2023/05/07 10:12:22;;;;;;;2.38;0.35;;;;;;;;;;20994261;28;20052;-68
2023/05/07 10:22:24;;;;;;;0.88;0.40;;;;;;;;;;20993311;28;20093;-68
2023/05/07 10:32:25;;;;;;;1.88;0.70;;;;;;;;;;20995152;28;20076;-68
2023/05/07 10:42:26;;;;;;;1.25;0.45;;;;;;;;;;21009997;28;20068;-67
2023/05/07 10:52:30;;;;;;;3.70;0.98;;;;;;;;;;21010636;28;20489;-68
2023/05/07 11:02:49;;;;;;;2.80;0.80;;;;;;;;;;21009516;28;20045;-68
2023/05/07 11:12:51;;;;;;;3.28;0.70;;;;;;;;;;21010255;28;20040;-69
2023/05/07 11:22:53;;;;;;;2.88;0.70;;;;;;;;;;21008099;28;20057;-69
2023/05/07 11:32:54;;;;;;;1.48;0.55;;;;;;;;;;21010355;28;20506;-69
2023/05/07 11:42:55;;;;;;;1.00;0.30;;;;;;;;;;21008119;28;20123;-70
2023/05/07 11:52:56;;;;;;;0.93;0.50;;;;;;;;;;21007190;28;20086;-70
2023/05/07 12:03:03;;;;;;;2.17;0.50;;;;;;;;;;21006284;28;20127;-69
2023/05/07 12:13:14;;;;;;;3.33;0.90;;;;;;;;;;21004190;28;20095;-70
2023/05/07 12:23:15;;;;;;;4.60;0.85;;;;;;;;;;21002159;28;20070;-69
2023/05/07 12:33:17;;;;;;;1.48;0.60;;;;;;;;;;21003388;28;20394;-69
2023/05/07 12:43:26;;;;;;;3.08;0.80;;;;;;;;;;21002495;28;20102;-69
2023/05/07 12:53:27;;;;;;;1.52;0.40;;;;;;;;;;21001632;28;20401;-69
2023/05/07 13:03:29;;;;;;;1.65;0.50;;;;;;;;;;20998602;28;20055;-68
2023/05/07 13:13:34;;;;;;;2.85;0.50;;;;;;;;;;20999814;28;20139;-69
2023/05/07 13:23:35;;;;;;;1.17;0.50;;;;;;;;;;20999895;28;20106;-69
2023/05/07 13:33:36;;;;;;;8.80;5.55;;;;;;;;;;20999751;28;20393;-69
2023/05/07 13:43:37;;;;;;;3.00;0.80;;;;;;;;;;20998260;28;20098;-68
2023/05/07 13:53:39;;;;;;;1.80;1.08;;;;;;;;;;20997937;28;20545;-68
2023/05/07 14:03:40;;;;;;;7.22;3.53;;;;;;;;;;20997865;28;20106;-69
2023/05/07 14:13:41;;;;;;;1.65;0.70;;;;;;;;;;20997705;28;20091;-69
2023/05/07 14:23:42;;;;;;;7.30;3.78;;;;;;;;;;20997547;28;20493;-70
2023/05/07 14:33:43;;;;;;;1.85;0.60;;;;;;;;;;20996558;28;20478;-69
2023/05/07 14:43:49;;;;;;;2.42;1.02;;;;;;;;;;20995320;28;20074;-69
2023/05/07 14:53:51;;;;;;;3.90;0.50;;;;;;;;;;20994610;28;20084;-69
2023/05/07 15:03:52;;;;;;;2.65;0.57;;;;;;;;;;20994270;28;20080;-69
2023/05/07 15:13:53;;;;;;;2.03;0.60;;;;;;;;;;20993660;28;20131;-69
2023/05/07 15:23:54;;;;;;;1.05;0.32;;;;;;;;;;21001527;28;20052;-70
2023/05/07 15:33:56;;;;;;;4.38;0.80;;;;;;;;;;21009254;28;20567;-69
2023/05/07 15:43:57;;;;;;;1.50;0.77;;;;;;;;;;21007213;28;20052;-69
2023/05/07 15:53:58;;;;;;;2.10;0.60;;;;;;;;;;21007697;28;20497;-69
2023/05/07 16:03:59;;;;;;;1.65;0.40;;;;;;;;;;21007195;28;20509;-69
2023/05/07 16:14:00;;;;;;;2.20;0.73;;;;;;;;;;21004733;28;20046;-69
2023/05/07 16:24:02;;;;;;;1.23;0.40;;;;;;;;;;21003671;28;20049;-69
2023/05/07 16:34:03;;;;;;;2.25;0.68;;;;;;;;;;21004111;28;20044;-69
2023/05/07 16:44:04;;;;;;;1.20;0.50;;;;;;;;;;21003870;28;20048;-68
2023/05/07 16:54:05;;;;;;;1.60;0.45;;;;;;;;;;21004217;28;20049;-68
2023/05/07 17:04:06;;;;;;;2.97;0.85;;;;;;;;;;21000953;28;20127;-69
2023/05/07 17:14:07;;;;;;;4.10;1.85;;;;;;;;;;20999993;28;20045;-69
2023/05/07 17:24:09;;;;;;;4.32;0.40;;;;;;;;;;20999096;28;20600;-70
2023/05/07 17:34:10;;;;;;;1.13;0.45;;;;;;;;;;20999528;28;20040;-68
2023/05/07 17:44:11;;;;;;;9.38;5.45;;;;;;;;;;20998716;28;20045;-69
2023/05/07 17:54:13;;;;;;;2.17;0.98;;;;;;;;;;20998382;28;20044;-69
2023/05/07 18:04:15;;;;;;;2.00;1.15;;;;;;;;;;20996674;28;20048;-69
2023/05/07 18:14:16;;;;;;;1.42;0.70;;;;;;;;;;20995962;28;20051;-69
2023/05/07 18:24:18;;;;;;;2.15;0.65;;;;;;;;;;20996628;28;20497;-69
2023/05/07 18:34:19;;;;;;;0.32;0.32;;;;;;;;;;20994578;28;20040;-69
2023/05/07 18:44:20;;;;;;;6.38;0.85;;;;;;;;;;20996048;28;20036;-69
2023/05/07 18:54:21;;;;;;;2.05;0.80;;;;;;;;;;20996555;28;20041;-69
2023/05/07 19:04:23;;;;;;;3.78;1.30;;;;;;;;;;21010443;28;20041;-70
2023/05/07 19:14:24;;;;;;;1.58;0.73;;;;;;;;;;21011321;28;20049;-70
2023/05/07 19:24:25;;;;;;;1.38;0.60;;;;;;;;;;21009893;28;20052;-69
2023/05/07 19:34:26;;;;;;;5.50;0.90;;;;;;;;;;21008714;28;20098;-69
2023/05/07 19:44:27;;;;;;;1.90;0.90;;;;;;;;;;21008256;28;20041;-69
2023/05/07 19:54:28;;;;;;;1.77;0.60;;;;;;;;;;21007328;28;20059;-67
2023/05/07 20:04:32;;;;;;;3.50;1.40;;;;;;;;;;21005974;28;20074;-69
2023/05/07 20:14:33;;;;;;;2.13;0.73;;;;;;;;;;21005975;28;20090;-68
2023/05/07 20:24:40;;;;;;;2.55;0.80;;;;;;;;;;21003902;28;20139;-68
2023/05/07 20:34:41;;;;;;;3.00;1.10;;;;;;;;;;21004850;28;20115;-69
2023/05/07 20:44:43;;;;;;;3.97;1.33;;;;;;;;;;21002687;28;20049;-68
2023/05/07 20:54:46;;;;;;;3.13;0.90;;;;;;;;;;21002897;28;20074;-68
2023/05/07 21:04:50;;;;;;;2.85;1.02;;;;;;;;;;21002150;28;20382;-69
2023/05/07 21:14:51;;;;;;;2.28;0.70;;;;;;;;;;21001647;28;20405;-69
2023/05/07 21:24:52;;;;;;;2.47;0.90;;;;;;;;;;20999377;28;20505;-69
2023/05/07 21:34:53;;;;;;;1.98;0.50;;;;;;;;;;20999962;28;20492;-69
2023/05/07 21:44:54;;;;;;;3.72;0.50;;;;;;;;;;20997796;28;20545;-68
2023/05/07 21:54:55;;;;;;;3.72;0.75;;;;;;;;;;20998509;28;20052;-69
2023/05/07 22:04:56;;;;;;;2.88;0.40;;;;;;;;;;20997011;28;20044;-67
2023/05/07 22:14:57;;;;;;;1.25;0.68;;;;;;;;;;20997607;28;20493;-70
2023/05/07 22:24:59;;;;;;;1.55;0.40;;;;;;;;;;20996439;28;20086;-68
2023/05/07 22:35:00;;;;;;;3.75;0.40;;;;;;;;;;21016371;28;20489;-69
2023/05/07 22:45:01;;;;;;;0.95;0.50;;;;;;;;;;21023868;28;20048;-69
2023/05/07 22:55:02;;;;;;;2.00;0.35;;;;;;;;;;21023292;28;20106;-69
2023/05/07 23:05:03;;;;;;;1.05;0.30;;;;;;;;;;21022780;28;20078;-68
2023/05/07 23:15:05;;;;;;;2.53;0.20;;;;;;;;;;21021262;28;20044;-68
2023/05/07 23:25:10;;;;;;;1.90;0.50;;;;;;;;;;21021335;28;20056;-68
2023/05/07 23:35:11;;;;;;;2.35;0.55;;;;;;;;;;21022020;28;20040;-69
2023/05/07 23:45:12;;;;;;;2.20;0.88;;;;;;;;;;21013268;28;20140;-68
2023/05/07 23:55:15;;;;;;;2.78;0.90;;;;;;;;;;21007968;28;20127;-68
